Time;durP1;ratioP1;P1;durP2;ratioP2;P2;SDS_P1;SDS_P2;PMS_P1;PMS_P2;Temp;Humidity;BMP_temperature;BMP_pressure;BME280_temperature;BME280_humidity;BME280_pressure;Samples;Min_cycle;Max_cycle;Signal;HPM_P1;HPM_P2
2022/04/30 00:00:51;;;;;;;10.40;8.02;;;;;;;13.25;60.99;95056.28;4143298;28;20161;-54
2022/04/30 00:02:53;;;;;;;9.93;8.10;;;;;;;13.30;60.74;95055.81;4143194;28;20054;-60
2022/04/30 00:04:55;;;;;;;11.43;7.88;;;;;;;13.30;60.97;95054.00;4143079;28;20505;-52
2022/04/30 00:06:56;;;;;;;12.13;8.55;;;;;;;13.20;60.59;95052.50;4103302;28;1169838;-54
2022/04/30 00:08:58;;;;;;;12.18;8.15;;;;;;;13.18;60.86;95046.59;4142550;28;20045;-56
2022/04/30 00:11:00;;;;;;;10.65;7.88;;;;;;;13.25;60.86;95055.44;4143573;28;20084;-54
2022/04/30 00:13:01;;;;;;;12.13;8.20;;;;;;;13.31;60.49;95044.28;4143969;28;20441;-52
2022/04/30 00:15:05;;;;;;;10.73;8.18;;;;;;;13.29;60.31;95046.28;4143905;28;20517;-52
2022/04/30 00:17:07;;;;;;;12.18;8.48;;;;;;;13.24;60.73;95049.38;4142469;28;20092;-56
2022/04/30 00:19:08;;;;;;;10.63;7.97;;;;;;;13.20;60.89;95049.88;4142828;28;20068;-53
2022/04/30 00:21:10;;;;;;;15.85;8.23;;;;;;;13.22;60.50;95051.34;4143263;28;20104;-54
2022/04/30 00:23:21;;;;;;;13.23;8.95;;;;;;;13.23;61.28;95049.56;4142342;28;20121;-55
2022/04/30 00:25:23;;;;;;;12.40;8.15;;;;;;;13.24;60.71;95045.94;4142461;28;20061;-55
2022/04/30 00:27:25;;;;;;;13.27;8.85;;;;;;;13.23;60.60;95052.19;4141857;28;20049;-55
2022/04/30 00:29:29;;;;;;;11.35;8.30;;;;;;;13.18;60.52;95051.84;4142419;28;20124;-51
2022/04/30 00:31:30;;;;;;;12.73;8.60;;;;;;;13.08;61.40;95058.13;4142578;28;20041;-53
2022/04/30 00:33:32;;;;;;;13.32;8.77;;;;;;;13.09;61.04;95057.13;4142884;28;20046;-53
2022/04/30 00:35:34;;;;;;;14.55;9.02;;;;;;;13.09;61.21;95053.66;4143483;28;20119;-54
2022/04/30 00:37:35;;;;;;;13.32;9.32;;;;;;;13.09;60.97;95057.13;4158363;28;20095;-54
2022/04/30 00:39:37;;;;;;;11.32;8.10;;;;;;;12.89;61.38;95061.09;4141847;28;20490;-53
2022/04/30 00:41:46;;;;;;;12.15;9.20;;;;;;;12.89;61.95;95061.91;4142087;28;20061;-54
2022/04/30 00:43:50;;;;;;;15.93;9.85;;;;;;;13.00;62.00;95054.66;4143460;28;20799;-55
2022/04/30 00:45:52;;;;;;;12.60;9.02;;;;;;;13.09;61.53;95053.66;4143480;28;20061;-54
2022/04/30 00:47:55;;;;;;;12.48;9.07;;;;;;;13.22;61.38;95047.91;4136684;28;20057;-53
2022/04/30 00:49:56;;;;;;;16.17;10.43;;;;;;;13.29;61.29;95051.53;4127109;28;20065;-54
2022/04/30 00:52:01;;;;;;;14.80;9.38;;;;;;;13.39;60.79;95048.72;4141026;28;20112;-52
2022/04/30 00:54:05;;;;;;;15.23;9.90;;;;;;;13.39;60.89;95052.19;4141983;28;20058;-53
2022/04/30 00:56:09;;;;;;;12.68;9.52;;;;;;;13.32;60.87;95040.69;4141340;28;20510;-54
2022/04/30 00:58:14;;;;;;;12.68;9.45;;;;;;;13.19;61.18;95043.00;4133719;28;20664;-53
2022/04/30 01:00:16;;;;;;;11.70;8.95;;;;;;;12.93;62.05;95040.53;4143060;28;20065;-54
2022/04/30 01:02:18;;;;;;;16.42;9.32;;;;;;;12.63;62.87;95043.66;4143060;28;20057;-51
2022/04/30 01:04:20;;;;;;;14.05;9.70;;;;;;;12.59;63.19;95044.16;4142790;28;20088;-53
2022/04/30 01:06:41;;;;;;;16.77;9.98;;;;;;;12.68;63.17;95048.41;4142639;28;20115;-54
2022/04/30 01:08:48;;;;;;;12.68;9.30;;;;;;;12.82;62.73;95045.16;4141404;28;20537;-54
2022/04/30 01:10:49;;;;;;;11.77;8.40;;;;;;;12.87;61.71;95044.66;4142000;28;20362;-54
2022/04/30 01:12:52;;;;;;;12.20;8.10;;;;;;;12.81;61.64;95048.75;4138341;28;20041;-55
2022/04/30 01:14:55;;;;;;;12.15;8.40;;;;;;;12.84;62.07;95050.22;4134667;28;20054;-53
2022/04/30 01:16:59;;;;;;;11.80;8.98;;;;;;;12.93;62.08;95044.00;4142771;28;20065;-54
2022/04/30 01:19:01;;;;;;;;;;;;;;;13.01;61.68;95036.06;4143273;28;20050;-53
2022/04/30 01:21:12;;;;;;;11.88;8.57;;;;;;;13.10;61.72;95035.09;4142474;28;20568;-52
2022/04/30 01:23:14;;;;;;;13.00;9.43;;;;;;;13.17;61.24;95030.00;4141150;28;20062;-49
2022/04/30 01:25:18;;;;;;;12.93;9.50;;;;;;;13.20;60.98;95042.00;4142480;28;20050;-53
2022/04/30 01:27:23;;;;;;;12.05;8.65;;;;;;;13.21;60.80;95035.75;4142289;28;20138;-51
2022/04/30 01:29:25;;;;;;;12.48;8.68;;;;;;;13.26;60.70;95041.31;4136894;28;20077;-52
2022/04/30 01:38:58;;;;;;;12.38;8.77;;;;;;;13.18;60.71;95026.34;4130255;28;20065;-50
2022/04/30 01:41:00;;;;;;;13.43;9.18;;;;;;;13.09;60.78;95033.44;4142479;28;20069;-53
2022/04/30 01:43:02;;;;;;;10.40;7.93;;;;;;;13.07;60.93;95027.53;4142519;28;20475;-55
2022/04/30 01:45:05;;;;;;;18.35;9.60;;;;;;;13.08;60.72;95031.81;4141108;28;20073;-49
2022/04/30 01:47:07;;;;;;;12.98;8.55;;;;;;;13.06;61.01;95036.41;4142663;28;20120;-53
2022/04/30 01:49:15;;;;;;;10.90;8.18;;;;;;;13.07;61.02;95030.16;4140455;28;20127;-52
2022/04/30 01:51:17;;;;;;;13.25;8.82;;;;;;;13.00;61.06;95034.44;4142178;28;20511;-55
2022/04/30 01:53:19;;;;;;;12.05;8.10;;;;;;;12.86;61.16;95029.84;4140241;28;20046;-53
2022/04/30 01:55:21;;;;;;;15.40;8.82;;;;;;;12.77;61.38;95029.03;4142162;28;20049;-54
2022/04/30 01:57:25;;;;;;;11.52;8.48;;;;;;;12.40;62.33;95032.13;4142004;28;20100;-49
2022/04/30 01:59:28;;;;;;;13.18;7.93;;;;;;;12.22;63.13;95035.72;4141994;28;20053;-49
2022/04/30 02:01:29;;;;;;;16.38;9.02;;;;;;;12.17;63.30;95019.59;4141774;28;20133;-53
2022/04/30 02:03:31;;;;;;;12.23;7.45;;;;;;;12.18;63.23;95025.69;4141782;28;20495;-53
2022/04/30 02:05:34;;;;;;;12.90;8.32;;;;;;;12.24;63.39;95031.13;4141542;28;20224;-49
2022/04/30 02:07:39;;;;;;;11.50;8.30;;;;;;;12.36;62.87;95034.25;4141824;28;20430;-51
2022/04/30 02:09:41;;;;;;;10.57;7.47;;;;;;;12.48;62.52;95037.41;4140642;28;20499;-52
2022/04/30 02:11:43;;;;;;;12.57;8.32;;;;;;;12.57;61.90;95040.84;4140914;28;20054;-51
2022/04/30 02:13:52;;;;;;;12.93;7.55;;;;;;;12.65;61.93;95036.44;4142277;28;20053;-54
2022/04/30 02:15:55;;;;;;;15.25;8.68;;;;;;;12.71;61.57;95034.94;4140776;28;20061;-54
2022/04/30 02:17:57;;;;;;;12.77;8.77;;;;;;;12.77;61.33;95033.47;4140441;28;20080;-53
2022/04/30 02:22:21;;;;;;;14.00;8.38;;;;;;;12.83;61.12;95031.00;4140586;28;20344;-51
2022/04/30 02:24:23;;;;;;;15.13;8.98;;;;;;;12.87;61.04;95027.06;4139392;28;20108;-54
2022/04/30 02:26:28;;;;;;;11.18;7.72;;;;;;;12.90;61.02;95031.97;4140848;28;20046;-54
2022/04/30 02:28:30;;;;;;;12.35;8.30;;;;;;;12.94;60.64;95026.41;4142005;28;20116;-55
2022/04/30 02:30:35;;;;;;;15.45;8.18;;;;;;;12.94;60.82;95027.22;4135164;28;20462;-51
2022/04/30 02:32:52;;;;;;;13.65;8.85;;;;;;;12.92;60.98;95026.56;4141859;28;20046;-49
2022/04/30 02:34:54;;;;;;;16.67;8.55;;;;;;;12.93;61.17;95017.69;4142349;28;20049;-52
2022/04/30 02:36:56;;;;;;;17.25;8.65;;;;;;;12.93;61.51;95016.84;4142137;28;20412;-51
2022/04/30 02:38:59;;;;;;;11.50;8.38;;;;;;;12.90;61.26;95018.81;4139776;28;20050;-49
2022/04/30 02:41:01;;;;;;;14.55;10.05;;;;;;;12.87;61.56;95032.31;4142093;28;20073;-55
2022/04/30 02:43:06;;;;;;;15.27;10.10;;;;;;;12.85;61.47;95022.97;4142003;28;20104;-54
2022/04/30 02:45:09;;;;;;;18.35;10.70;;;;;;;12.85;61.58;95020.31;4142031;28;20061;-50
2022/04/30 02:47:11;;;;;;;16.30;10.82;;;;;;;12.85;61.57;95017.69;4142012;28;20061;-54
2022/04/30 02:49:12;;;;;;;12.95;9.80;;;;;;;12.82;61.48;95018.84;4141773;28;20087;-48
2022/04/30 02:51:17;;;;;;;15.82;10.13;;;;;;;12.81;61.56;95019.81;4141771;28;20108;-51
2022/04/30 02:53:19;;;;;;;12.38;9.63;;;;;;;12.82;61.64;95018.00;4140870;28;20054;-51
2022/04/30 02:55:22;;;;;;;13.30;9.60;;;;;;;12.82;61.55;95020.63;4143157;28;20057;-49
2022/04/30 02:57:24;;;;;;;13.20;9.15;;;;;;;12.82;61.35;95018.00;4144913;28;20148;-51
2022/04/30 03:01:45;;;;;;;14.43;10.23;;;;;;;12.77;61.78;95013.25;4144298;28;20457;-50
2022/04/30 03:03:47;;;;;;;14.18;9.25;;;;;;;12.74;61.66;95018.03;4143067;28;20082;-52
2022/04/30 03:05:50;;;;;;;16.42;8.75;;;;;;;12.74;61.75;95018.84;4144382;28;20579;-54
2022/04/30 03:07:53;;;;;;;12.73;8.90;;;;;;;12.71;61.90;95013.91;4143714;28;20065;-50
2022/04/30 03:09:55;;;;;;;12.35;9.07;;;;;;;12.70;61.84;95013.09;4144573;28;20112;-51
2022/04/30 03:11:58;;;;;;;13.07;9.15;;;;;;;12.72;61.43;95002.41;4144905;28;20694;-51
2022/04/30 03:14:00;;;;;;;14.23;9.88;;;;;;;12.69;61.87;94998.31;4144796;28;20058;-53
2022/04/30 03:23:06;;;;;;;14.23;9.32;;;;;;;12.63;62.10;95012.13;4143103;28;20171;-55
2022/04/30 03:25:08;;;;;;;14.73;9.48;;;;;;;12.64;61.67;95010.28;4144642;28;20050;-53
2022/04/30 03:27:11;;;;;;;13.05;9.52;;;;;;;12.60;62.27;95015.06;4144609;28;20534;-51
2022/04/30 03:29:12;;;;;;;12.47;9.63;;;;;;;12.58;62.13;95021.47;4144628;28;20426;-53
2022/04/30 03:31:16;;;;;;;14.10;9.65;;;;;;;12.56;62.22;95019.03;4137956;28;20125;-51
2022/04/30 03:33:18;;;;;;;17.00;10.23;;;;;;;12.55;62.33;95019.97;4127743;28;20081;-53
2022/04/30 03:35:20;;;;;;;13.55;9.82;;;;;;;12.56;62.13;95029.53;4141009;28;20057;-51
2022/04/30 03:37:21;;;;;;;16.15;9.23;;;;;;;12.56;62.24;95029.53;4144621;28;20065;-54
2022/04/30 03:39:23;;;;;;;16.63;10.00;;;;;;;12.47;62.62;95027.84;4142756;28;20053;-54
2022/04/30 03:41:25;;;;;;;16.50;10.05;;;;;;;12.43;62.46;95031.78;4144339;28;20447;-50
2022/04/30 03:43:26;;;;;;;13.05;9.63;;;;;;;12.39;62.47;95030.47;4144203;28;20605;-52
2022/04/30 03:45:28;;;;;;;16.90;9.48;;;;;;;12.39;62.64;95033.09;4144219;28;20147;-50
2022/04/30 03:47:30;;;;;;;13.38;9.68;;;;;;;12.41;62.67;95036.38;4141736;28;20061;-53
2022/04/30 03:49:32;;;;;;;12.43;9.00;;;;;;;12.43;62.51;95037.03;4127448;28;20085;-52
2022/04/30 03:51:33;;;;;;;13.88;9.48;;;;;;;12.45;62.48;95038.56;4142367;28;20061;-54
2022/04/30 03:53:35;;;;;;;13.27;9.32;;;;;;;12.45;62.17;95035.91;4142904;28;20176;-54
2022/04/30 03:55:37;;;;;;;16.70;9.40;;;;;;;12.46;62.48;95039.38;4144238;28;20120;-52
2022/04/30 03:57:39;;;;;;;13.73;9.43;;;;;;;12.46;62.24;95034.91;4144086;28;20068;-52
2022/04/30 03:59:41;;;;;;;16.40;9.43;;;;;;;12.51;62.19;95039.69;4144114;28;20143;-53
2022/04/30 04:01:43;;;;;;;11.63;8.93;;;;;;;12.53;61.96;95042.16;4143991;28;20137;-51
2022/04/30 04:03:45;;;;;;;16.48;9.77;;;;;;;12.53;62.42;95044.78;4143643;28;20132;-49
2022/04/30 04:05:49;;;;;;;13.80;9.63;;;;;;;12.56;61.96;95039.19;4143504;28;20137;-53
2022/04/30 04:07:50;;;;;;;15.30;8.98;;;;;;;12.52;62.15;95038.72;4142216;28;20054;-52
2022/04/30 04:09:52;;;;;;;14.35;9.20;;;;;;;12.50;62.30;95033.63;4143674;28;20498;-49
2022/04/30 04:11:54;;;;;;;13.65;9.07;;;;;;;12.50;62.27;95028.38;4143813;28;20211;-53
2022/04/30 04:18:36;;;;;;;14.07;10.30;;;;;;;12.59;62.00;95039.69;4143078;28;20065;-52
2022/04/30 04:20:38;;;;;;;12.50;9.30;;;;;;;12.62;61.90;95039.38;4142783;28;20054;-55
2022/04/30 04:22:40;;;;;;;12.23;9.63;;;;;;;12.65;61.87;95043.50;4127578;28;20473;-53
2022/04/30 04:27:03;;;;;;;17.02;9.88;;;;;;;12.74;61.87;95049.59;4127681;28;20054;-51
2022/04/30 04:29:04;;;;;;;15.55;10.50;;;;;;;12.76;61.55;95050.25;4127598;28;20197;-53
2022/04/30 04:31:06;;;;;;;16.60;10.15;;;;;;;12.79;61.46;95039.38;4132675;28;20133;-56
2022/04/30 04:33:08;;;;;;;18.90;9.63;;;;;;;12.84;61.20;95047.59;4139434;28;20065;-53
2022/04/30 04:35:10;;;;;;;16.17;9.65;;;;;;;12.83;61.47;95045.97;4143579;28;20490;-52
2022/04/30 04:37:11;;;;;;;14.32;9.93;;;;;;;12.83;61.43;95027.56;4143494;28;20054;-53
2022/04/30 04:39:14;;;;;;;16.85;10.15;;;;;;;12.88;61.50;95035.75;4142130;28;20058;-55
2022/04/30 04:41:16;;;;;;;14.23;9.90;;;;;;;12.92;61.17;95039.69;4143496;28;20375;-52
2022/04/30 04:43:17;;;;;;;16.33;10.00;;;;;;;12.82;61.67;95045.16;4143324;28;20050;-54
2022/04/30 04:45:22;;;;;;;16.95;10.10;;;;;;;12.65;61.96;95046.94;4143263;28;20124;-54
2022/04/30 04:47:24;;;;;;;14.85;9.82;;;;;;;12.57;62.17;95049.56;4141401;28;20343;-55
2022/04/30 04:49:25;;;;;;;16.55;10.07;;;;;;;12.43;62.47;95040.50;4143127;28;20511;-53
2022/04/30 04:51:27;;;;;;;18.35;10.73;;;;;;;12.43;62.70;95044.94;4143134;28;20419;-52
2022/04/30 04:53:29;;;;;;;17.48;10.07;;;;;;;12.50;62.72;95052.00;4142254;28;20479;-56
2022/04/30 04:55:31;;;;;;;16.17;10.55;;;;;;;12.61;62.83;95052.69;4143786;28;20406;-54
2022/04/30 04:57:33;;;;;;;14.77;10.35;;;;;;;12.73;62.24;95058.44;4142232;28;20497;-53
2022/04/30 04:59:35;;;;;;;15.68;11.15;;;;;;;12.78;61.91;95053.53;4143582;28;20062;-54
2022/04/30 05:01:37;;;;;;;13.43;9.48;;;;;;;12.85;61.79;95059.75;4143364;28;20137;-53
2022/04/30 05:03:39;;;;;;;15.07;10.48;;;;;;;12.89;61.30;95053.19;4143096;28;20054;-52
2022/04/30 05:05:41;;;;;;;13.07;10.02;;;;;;;12.96;61.65;95062.06;4142765;28;20058;-53
2022/04/30 05:07:44;;;;;;;14.70;9.90;;;;;;;13.03;61.37;95057.78;4142762;28;20057;-53
2022/04/30 05:09:46;;;;;;;13.82;10.20;;;;;;;13.11;60.79;95060.41;4141654;28;20061;-58
2022/04/30 05:11:47;;;;;;;13.10;9.63;;;;;;;13.23;60.99;95052.19;4143298;28;20212;-56
2022/04/30 05:13:49;;;;;;;16.92;10.93;;;;;;;13.29;60.42;95060.28;4142990;28;20203;-51
2022/04/30 05:15:51;;;;;;;13.73;9.85;;;;;;;13.37;60.43;95062.03;4142756;28;20092;-54
2022/04/30 05:17:52;;;;;;;23.92;11.38;;;;;;;13.46;59.98;95061.03;4141962;28;20050;-53
2022/04/30 05:19:54;;;;;;;14.20;10.18;;;;;;;13.56;59.81;95067.94;4143078;28;20050;-57
2022/04/30 05:21:56;;;;;;;14.80;10.30;;;;;;;13.71;59.28;95067.06;4142733;28;20411;-55
2022/04/30 05:23:58;;;;;;;14.35;11.27;;;;;;;13.73;58.92;95062.47;4141645;28;20050;-53
2022/04/30 05:26:00;;;;;;;18.95;10.50;;;;;;;13.85;58.85;95067.34;4143297;28;20529;-54
2022/04/30 05:28:02;;;;;;;19.58;11.55;;;;;;;13.83;59.02;95062.28;4143383;28;20049;-55
2022/04/30 05:30:04;;;;;;;16.00;11.05;;;;;;;13.82;58.75;95057.16;4142959;28;20054;-54
2022/04/30 05:32:06;;;;;;;16.17;10.65;;;;;;;13.92;58.98;95053.34;4142205;28;20506;-52
2022/04/30 05:34:08;;;;;;;19.92;11.55;;;;;;;14.05;58.97;95052.78;4135992;28;20605;-54
2022/04/30 05:36:10;;;;;;;15.82;10.55;;;;;;;14.20;58.12;95057.34;4143056;28;20062;-53
2022/04/30 05:38:12;;;;;;;14.75;10.82;;;;;;;14.21;58.11;95058.97;4141337;28;20050;-56
2022/04/30 05:40:13;;;;;;;17.30;10.93;;;;;;;14.24;58.02;95056.81;4143022;28;20313;-54
2022/04/30 05:42:15;;;;;;;19.42;11.52;;;;;;;13.91;58.75;95064.03;4142607;28;20062;-56
2022/04/30 05:44:17;;;;;;;17.80;10.50;;;;;;;13.88;59.29;95059.94;4142266;28;20501;-52
2022/04/30 05:46:18;;;;;;;18.80;12.15;;;;;;;13.96;59.38;95066.16;4142576;28;20481;-52
2022/04/30 05:48:20;;;;;;;18.90;11.57;;;;;;;14.04;59.25;95066.94;4142166;28;20374;-51
2022/04/30 05:50:22;;;;;;;17.63;12.40;;;;;;;14.10;58.75;95065.44;4142641;28;20046;-54
2022/04/30 05:52:24;;;;;;;17.20;11.63;;;;;;;14.13;58.38;95067.72;4142595;28;20049;-53
2022/04/30 05:54:25;;;;;;;27.83;12.02;;;;;;;14.13;58.82;95065.09;4141444;28;20479;-53
2022/04/30 05:56:27;;;;;;;16.58;11.90;;;;;;;14.24;58.64;95063.88;4142780;28;20049;-53
2022/04/30 05:58:29;;;;;;;22.33;11.85;;;;;;;14.30;58.66;95071.09;4142583;28;20111;-51
2022/04/30 06:00:30;;;;;;;16.70;11.55;;;;;;;14.38;58.38;95071.06;4142611;28;20085;-53
2022/04/30 06:02:32;;;;;;;15.13;11.55;;;;;;;14.49;58.43;95075.13;4142459;28;20123;-52
2022/04/30 06:04:34;;;;;;;18.08;11.70;;;;;;;14.53;58.13;95076.41;4142573;28;20747;-54
2022/04/30 06:06:36;;;;;;;15.57;10.65;;;;;;;14.60;58.07;95074.75;4142306;28;20471;-54
2022/04/30 06:08:38;;;;;;;17.38;10.93;;;;;;;14.58;57.11;95074.09;4141084;28;20042;-51
2022/04/30 06:10:40;;;;;;;20.95;9.68;;;;;;;14.28;57.19;95070.47;4142549;28;20061;-51
2022/04/30 06:12:41;;;;;;;13.52;9.60;;;;;;;14.07;57.49;95066.63;4142390;28;20525;-51
2022/04/30 06:14:43;;;;;;;15.55;9.77;;;;;;;14.03;57.89;95070.59;4142351;28;20050;-54
2022/04/30 06:16:46;;;;;;;17.70;9.68;;;;;;;14.10;57.84;95070.72;4142690;28;20057;-55
2022/04/30 06:18:48;;;;;;;15.50;10.00;;;;;;;14.11;58.40;95073.19;4142374;28;20054;-53
2022/04/30 06:21:10;;;;;;;17.80;9.25;;;;;;;14.20;58.33;95071.34;4142806;28;20057;-53
2022/04/30 06:23:18;;;;;;;13.93;9.48;;;;;;;13.98;57.92;95062.38;4141175;28;20521;-57
2022/04/30 06:25:20;;;;;;;14.05;9.60;;;;;;;13.98;57.95;95066.81;4142862;28;20065;-55
2022/04/30 06:27:21;;;;;;;12.00;9.00;;;;;;;13.89;57.96;95072.09;4140906;28;20109;-58
2022/04/30 06:29:23;;;;;;;13.02;9.70;;;;;;;13.79;58.14;95074.13;4142302;28;20111;-53
2022/04/30 06:31:25;;;;;;;12.88;9.88;;;;;;;13.90;58.39;95068.50;4145459;28;20843;-54
2022/04/30 06:33:27;;;;;;;13.20;8.48;;;;;;;14.06;57.97;95072.06;4140757;28;20463;-52
2022/04/30 06:35:29;;;;;;;14.93;9.38;;;;;;;14.12;57.37;95072.19;4133092;28;20058;-54
2022/04/30 06:37:34;;;;;;;13.80;9.25;;;;;;;14.13;57.00;95067.72;4129353;28;20107;-54
2022/04/30 06:39:35;;;;;;;14.27;9.52;;;;;;;14.09;57.52;95069.09;4127956;28;20305;-52
2022/04/30 06:41:37;;;;;;;14.63;8.88;;;;;;;14.00;57.78;95059.56;4129187;28;20137;-54
2022/04/30 06:43:40;;;;;;;13.63;9.15;;;;;;;14.04;57.62;95059.03;4128867;28;20058;-55
2022/04/30 06:45:42;;;;;;;16.38;9.38;;;;;;;14.23;57.48;95057.81;4134587;28;20358;-54
2022/04/30 06:47:49;;;;;;;16.30;10.27;;;;;;;14.49;56.80;95054.03;4140590;28;20088;-57
2022/04/30 06:49:51;;;;;;;15.77;9.55;;;;;;;14.66;56.08;95058.25;4145384;28;20546;-52
2022/04/30 06:51:53;;;;;;;12.63;8.90;;;;;;;14.90;55.61;95057.22;4145307;28;20421;-54
2022/04/30 06:58:44;;;;;;;12.52;9.23;;;;;;;15.00;54.56;95059.66;4138722;28;20419;-54
2022/04/30 07:02:57;;;;;;;12.98;8.70;;;;;;;14.96;54.59;95050.44;4143126;28;20080;-54
2022/04/30 07:04:59;;;;;;;12.80;9.27;;;;;;;14.85;54.95;95048.22;4144780;28;20054;-52
2022/04/30 07:07:01;;;;;;;13.75;9.45;;;;;;;15.14;54.89;95050.97;4144913;28;20115;-50
2022/04/30 07:09:05;;;;;;;13.95;9.38;;;;;;;15.50;53.92;95046.81;4143676;28;20106;-54
2022/04/30 07:11:07;;;;;;;12.57;8.18;;;;;;;15.79;52.99;95046.06;4144692;28;20062;-53
2022/04/30 07:13:08;;;;;;;12.57;9.02;;;;;;;16.02;52.47;95045.91;4144840;28;20589;-56
2022/04/30 07:15:11;;;;;;;10.48;7.72;;;;;;;16.28;51.14;95041.97;4144814;28;20062;-56
2022/04/30 07:17:14;;;;;;;11.10;7.80;;;;;;;16.47;49.80;95046.66;4144885;28;20108;-53
2022/04/30 07:19:16;;;;;;;8.93;7.43;;;;;;;16.62;49.23;95041.31;4143845;28;20054;-54
2022/04/30 07:21:18;;;;;;;16.55;7.93;;;;;;;16.71;49.97;95049.94;4137607;28;20058;-56
2022/04/30 07:23:20;;;;;;;13.38;7.75;;;;;;;16.85;48.78;95050.94;4126705;28;20278;-53
2022/04/30 07:25:22;;;;;;;11.25;7.35;;;;;;;16.75;48.37;95044.09;4127957;28;20057;-52
2022/04/30 07:27:23;;;;;;;9.88;7.45;;;;;;;16.73;48.39;95047.94;4127794;28;20062;-56
2022/04/30 07:29:25;;;;;;;11.25;7.68;;;;;;;16.24;48.71;95045.97;4128154;28;20054;-53
2022/04/30 07:31:27;;;;;;;9.48;7.05;;;;;;;16.22;49.76;95045.34;4128095;28;20112;-54
2022/04/30 07:33:30;;;;;;;12.52;7.30;;;;;;;16.42;49.21;95043.75;4133960;28;20042;-53
2022/04/30 07:35:35;;;;;;;9.32;6.93;;;;;;;16.54;49.17;95044.06;4140270;28;20050;-54
2022/04/30 07:37:37;;;;;;;9.00;6.70;;;;;;;16.63;48.34;95042.97;4128698;28;20081;-52
2022/04/30 07:39:38;;;;;;;9.80;7.20;;;;;;;16.62;47.99;95043.16;4126923;28;20450;-53
2022/04/30 07:41:40;;;;;;;11.50;7.15;;;;;;;16.60;48.33;95038.03;4128114;28;20058;-57
2022/04/30 07:43:42;;;;;;;10.82;7.38;;;;;;;16.59;47.73;95039.06;4127713;28;20069;-54
2022/04/30 07:45:44;;;;;;;12.90;7.47;;;;;;;16.47;48.17;95028.13;4128307;28;20201;-57
2022/04/30 07:47:47;;;;;;;9.95;7.85;;;;;;;16.13;49.19;95034.91;4132449;28;20122;-54
2022/04/30 07:49:49;;;;;;;15.30;7.63;;;;;;;16.06;49.95;95035.81;4144128;28;20062;-53
2022/04/30 07:51:55;;;;;;;13.77;7.50;;;;;;;16.01;49.89;95038.19;4144222;28;20422;-57
2022/04/30 07:53:57;;;;;;;12.63;7.57;;;;;;;15.97;49.61;95030.63;4142900;28;20068;-52
2022/04/30 07:55:59;;;;;;;10.82;7.78;;;;;;;15.95;49.99;95040.56;4144012;28;20057;-55
2022/04/30 07:58:02;;;;;;;9.20;6.93;;;;;;;15.59;50.17;95032.50;4144078;28;20144;-51
2022/04/30 08:00:04;;;;;;;11.00;8.33;;;;;;;15.87;50.49;95030.06;4142913;28;20046;-51
2022/04/30 08:02:06;;;;;;;11.07;7.43;;;;;;;15.57;50.77;95027.44;4144153;28;20283;-53
2022/04/30 08:04:08;;;;;;;12.55;7.97;;;;;;;15.57;51.17;95030.09;4143482;28;20108;-54
2022/04/30 08:06:10;;;;;;;9.95;7.60;;;;;;;16.00;49.98;95026.78;4143976;28;20136;-55
2022/04/30 08:08:12;;;;;;;11.93;8.68;;;;;;;16.06;49.64;95019.97;4142470;28;20132;-52
2022/04/30 08:10:14;;;;;;;10.32;7.30;;;;;;;16.15;48.55;95029.41;4143832;28;20439;-53
2022/04/30 08:12:19;;;;;;;9.52;6.53;;;;;;;16.24;48.61;95028.31;4144111;28;20498;-56
2022/04/30 08:14:21;;;;;;;11.57;6.68;;;;;;;16.16;48.68;95021.31;4143763;28;20467;-55
2022/04/30 08:16:23;;;;;;;13.48;7.40;;;;;;;16.11;48.91;95020.22;4143811;28;20085;-58
2022/04/30 08:18:26;;;;;;;11.50;7.53;;;;;;;16.12;48.63;95029.78;4143394;28;20137;-53
2022/04/30 08:20:28;;;;;;;14.00;7.43;;;;;;;15.90;48.50;95029.72;4143975;28;20060;-56
2022/04/30 08:22:30;;;;;;;10.10;7.30;;;;;;;15.85;49.04;95026.84;4143801;28;20061;-53
2022/04/30 08:24:32;;;;;;;8.90;6.85;;;;;;;16.06;49.28;95017.31;4142139;28;20581;-54
2022/04/30 08:26:34;;;;;;;10.63;7.60;;;;;;;15.90;49.10;95026.28;4144076;28;20112;-56
2022/04/30 08:28:35;;;;;;;12.70;7.07;;;;;;;16.07;48.92;95011.84;4143839;28;20507;-52
2022/04/30 08:30:37;;;;;;;9.10;6.93;;;;;;;15.88;49.07;95018.53;4143853;28;20050;-52
2022/04/30 08:32:39;;;;;;;11.50;7.28;;;;;;;15.79;49.90;95021.44;4143805;28;20517;-53
2022/04/30 08:34:42;;;;;;;11.50;7.60;;;;;;;15.85;50.07;95021.53;4142962;28;20053;-53
2022/04/30 08:36:45;;;;;;;10.30;7.43;;;;;;;16.12;49.60;95019.22;4139056;28;20151;-51
2022/04/30 08:38:46;;;;;;;9.60;6.05;;;;;;;16.18;48.43;95013.19;4141776;28;20073;-54
2022/04/30 08:40:48;;;;;;;9.43;7.22;;;;;;;16.21;48.51;95012.00;4142968;28;20046;-54
2022/04/30 08:42:50;;;;;;;8.35;6.47;;;;;;;16.37;49.64;95025.00;4143524;28;20058;-53
2022/04/30 08:44:52;;;;;;;12.25;6.78;;;;;;;16.27;50.57;95024.47;4143376;28;20595;-55
2022/04/30 08:46:54;;;;;;;8.90;7.03;;;;;;;16.38;50.34;95018.69;4143555;28;20069;-54
2022/04/30 08:48:56;;;;;;;9.05;7.05;;;;;;;16.33;50.63;95018.44;4141933;28;20526;-55
2022/04/30 08:50:58;;;;;;;9.13;6.90;;;;;;;16.36;50.66;95018.06;4143819;28;20157;-54
2022/04/30 08:53:00;;;;;;;8.95;6.15;;;;;;;16.75;49.92;95017.63;4141319;28;20580;-54
2022/04/30 08:55:02;;;;;;;12.73;6.05;;;;;;;16.65;49.88;95018.97;4143612;28;20100;-53
2022/04/30 08:57:04;;;;;;;8.25;6.07;;;;;;;16.35;50.65;95014.59;4143694;28;20591;-57
2022/04/30 08:59:06;;;;;;;8.77;5.82;;;;;;;15.85;52.01;95013.63;4143156;28;20499;-53
2022/04/30 09:01:11;;;;;;;7.97;5.90;;;;;;;15.77;52.22;95011.88;4143104;28;20057;-52
2022/04/30 09:03:18;;;;;;;12.95;5.78;;;;;;;15.49;53.03;95008.22;4142896;28;20054;-54
2022/04/30 09:05:21;;;;;;;9.05;5.35;;;;;;;15.50;53.14;95018.59;4142788;28;20132;-52
2022/04/30 09:07:25;;;;;;;9.90;6.22;;;;;;;15.67;52.75;95011.31;4143117;28;20057;-52
2022/04/30 09:09:28;;;;;;;9.30;5.82;;;;;;;15.43;52.73;94998.38;4141558;28;20418;-53
2022/04/30 09:11:32;;;;;;;8.38;5.88;;;;;;;15.51;52.54;95007.03;4143128;28;20058;-55
2022/04/30 09:13:45;;;;;;;9.18;4.93;;;;;;;15.43;52.71;94999.19;4141680;28;20061;-54
2022/04/30 09:15:47;;;;;;;8.15;4.80;;;;;;;15.69;52.00;95000.56;4143057;28;20454;-51
2022/04/30 09:17:56;;;;;;;10.63;5.97;;;;;;;16.01;51.04;94994.09;4142711;28;20136;-55
2022/04/30 09:19:59;;;;;;;8.27;5.88;;;;;;;16.45;50.25;94995.78;4143068;28;20053;-52
2022/04/30 09:22:01;;;;;;;9.93;5.57;;;;;;;16.58;49.02;94997.72;4142700;28;20745;-54
2022/04/30 09:24:03;;;;;;;7.38;5.00;;;;;;;16.70;48.90;94993.59;4139907;28;20088;-55
2022/04/30 09:26:06;;;;;;;9.25;5.22;;;;;;;16.75;48.90;94999.13;4142931;28;20127;-53
2022/04/30 09:28:09;;;;;;;8.77;5.50;;;;;;;17.08;48.05;94995.13;4142867;28;20066;-52
2022/04/30 09:30:17;;;;;;;5.47;4.65;;;;;;;16.93;47.83;94995.25;4143091;28;20061;-51
2022/04/30 09:32:24;;;;;;;7.13;4.68;;;;;;;16.72;48.58;94998.69;4143401;28;20359;-49
2022/04/30 09:39:20;;;;;;;7.30;4.22;;;;;;;16.78;47.71;94985.53;4139987;28;20159;-51
2022/04/30 09:41:26;;;;;;;6.60;3.92;;;;;;;16.33;48.51;94987.53;4142626;28;20061;-55
2022/04/30 09:43:33;;;;;;;10.57;4.68;;;;;;;16.15;49.12;94985.31;4142518;28;20137;-52
2022/04/30 09:45:38;;;;;;;5.53;4.35;;;;;;;16.62;48.33;94983.13;4142550;28;20054;-53
2022/04/30 09:47:41;;;;;;;7.70;3.85;;;;;;;16.99;46.83;94987.38;4138499;28;20050;-55
2022/04/30 09:54:24;;;;;;;5.28;4.15;;;;;;;17.27;45.33;94969.81;4124914;28;20050;-51
2022/04/30 09:56:39;;;;;;;7.18;3.97;;;;;;;16.77;46.32;94970.66;4141307;28;20117;-55
2022/04/30 09:58:42;;;;;;;12.90;3.22;;;;;;;16.96;45.97;94968.41;4126623;28;20490;-58
2022/04/30 10:00:44;;;;;;;3.80;3.00;;;;;;;17.12;45.44;94980.50;4125190;28;20050;-56
2022/04/30 10:02:48;;;;;;;8.38;3.78;;;;;;;16.98;45.55;94974.31;4126409;28;20128;-52
2022/04/30 10:04:50;;;;;;;4.75;3.22;;;;;;;16.67;45.92;94977.25;4126944;28;20046;-54
2022/04/30 10:06:53;;;;;;;6.45;3.78;;;;;;;16.65;46.52;94977.47;4128207;28;20066;-55
2022/04/30 10:08:56;;;;;;;9.73;3.72;;;;;;;16.67;45.92;94962.22;4128413;28;20549;-54
2022/04/30 10:11:34;;;;;;;7.05;3.30;;;;;;;16.94;45.51;94962.47;4144156;28;20053;-54
2022/04/30 10:14:02;;;;;;;4.93;3.03;;;;;;;16.85;44.90;94955.69;4129662;28;20050;-54